sensor_id;sensor_type;location;lat;lon;timestamp;P1;durP1;ratioP1;P2;durP2;ratioP2
5646;SDS011;2845;48.626;9.362;2023-07-02T00:00:41;1.20;;;0.63;;
5646;SDS011;2845;48.626;9.362;2023-07-02T00:03:15;1.30;;;0.75;;
5646;SDS011;2845;48.626;9.362;2023-07-02T00:05:54;1.75;;;0.80;;
5646;SDS011;2845;48.626;9.362;2023-07-02T00:08:29;1.60;;;0.70;;
5646;SDS011;2845;48.626;9.362;2023-07-02T00:11:05;3.58;;;0.93;;
5646;SDS011;2845;48.626;9.362;2023-07-02T00:13:39;1.00;;;0.70;;
5646;SDS011;2845;48.626;9.362;2023-07-02T00:16:13;1.65;;;0.90;;
5646;SDS011;2845;48.626;9.362;2023-07-02T00:18:47;1.27;;;0.73;;
5646;SDS011;2845;48.626;9.362;2023-07-02T00:21:25;1.48;;;0.75;;
5646;SDS011;2845;48.626;9.362;2023-07-02T00:24:00;1.38;;;0.80;;
5646;SDS011;2845;48.626;9.362;2023-07-02T00:26:36;2.15;;;0.80;;
5646;SDS011;2845;48.626;9.362;2023-07-02T00:29:12;1.75;;;0.80;;
5646;SDS011;2845;48.626;9.362;2023-07-02T00:31:46;1.40;;;0.90;;
5646;SDS011;2845;48.626;9.362;2023-07-02T00:34:21;2.35;;;0.85;;
5646;SDS011;2845;48.626;9.362;2023-07-02T00:36:55;1.33;;;0.70;;
5646;SDS011;2845;48.626;9.362;2023-07-02T00:39:29;1.27;;;0.57;;
5646;SDS011;2845;48.626;9.362;2023-07-02T00:42:05;1.90;;;0.90;;
5646;SDS011;2845;48.626;9.362;2023-07-02T00:44:40;1.85;;;0.70;;
5646;SDS011;2845;48.626;9.362;2023-07-02T00:47:15;2.15;;;0.95;;
5646;SDS011;2845;48.626;9.362;2023-07-02T00:49:50;1.15;;;0.77;;
5646;SDS011;2845;48.626;9.362;2023-07-02T00:52:24;1.52;;;0.73;;
5646;SDS011;2845;48.626;9.362;2023-07-02T00:54:58;1.60;;;0.80;;
5646;SDS011;2845;48.626;9.362;2023-07-02T00:57:34;1.42;;;0.70;;
5646;SDS011;2845;48.626;9.362;2023-07-02T01:00:08;1.90;;;1.00;;
5646;SDS011;2845;48.626;9.362;2023-07-02T01:02:52;1.75;;;0.73;;
5646;SDS011;2845;48.626;9.362;2023-07-02T01:05:29;3.95;;;0.60;;
5646;SDS011;2845;48.626;9.362;2023-07-02T01:08:08;1.25;;;0.70;;
5646;SDS011;2845;48.626;9.362;2023-07-02T01:10:42;1.33;;;0.65;;
5646;SDS011;2845;48.626;9.362;2023-07-02T01:13:19;1.67;;;0.70;;
5646;SDS011;2845;48.626;9.362;2023-07-02T01:15:57;1.25;;;0.70;;
5646;SDS011;2845;48.626;9.362;2023-07-02T01:18:31;1.58;;;0.70;;
5646;SDS011;2845;48.626;9.362;2023-07-02T01:21:07;1.40;;;0.80;;
5646;SDS011;2845;48.626;9.362;2023-07-02T01:23:41;1.30;;;0.70;;
5646;SDS011;2845;48.626;9.362;2023-07-02T01:26:16;1.40;;;0.70;;
5646;SDS011;2845;48.626;9.362;2023-07-02T01:28:50;2.28;;;0.65;;
5646;SDS011;2845;48.626;9.362;2023-07-02T01:31:24;1.65;;;0.60;;
5646;SDS011;2845;48.626;9.362;2023-07-02T01:33:58;1.38;;;0.80;;
5646;SDS011;2845;48.626;9.362;2023-07-02T01:36:34;1.27;;;0.75;;
5646;SDS011;2845;48.626;9.362;2023-07-02T01:39:08;2.08;;;0.90;;
5646;SDS011;2845;48.626;9.362;2023-07-02T01:41:44;1.92;;;0.90;;
5646;SDS011;2845;48.626;9.362;2023-07-02T01:44:23;2.33;;;0.80;;
5646;SDS011;2845;48.626;9.362;2023-07-02T01:46:57;1.80;;;0.90;;
5646;SDS011;2845;48.626;9.362;2023-07-02T01:49:31;1.52;;;0.82;;
5646;SDS011;2845;48.626;9.362;2023-07-02T01:52:07;1.38;;;0.77;;
5646;SDS011;2845;48.626;9.362;2023-07-02T01:54:41;1.58;;;0.88;;
5646;SDS011;2845;48.626;9.362;2023-07-02T01:57:16;3.17;;;1.13;;
5646;SDS011;2845;48.626;9.362;2023-07-02T01:59:50;2.50;;;1.08;;
5646;SDS011;2845;48.626;9.362;2023-07-02T02:02:24;1.80;;;1.00;;
5646;SDS011;2845;48.626;9.362;2023-07-02T02:04:59;1.83;;;0.73;;
5646;SDS011;2845;48.626;9.362;2023-07-02T02:07:34;1.83;;;0.98;;
5646;SDS011;2845;48.626;9.362;2023-07-02T02:10:09;1.25;;;1.05;;
5646;SDS011;2845;48.626;9.362;2023-07-02T02:12:44;1.77;;;0.80;;
5646;SDS011;2845;48.626;9.362;2023-07-02T02:15:18;2.88;;;1.35;;
5646;SDS011;2845;48.626;9.362;2023-07-02T02:17:52;3.97;;;1.05;;
5646;SDS011;2845;48.626;9.362;2023-07-02T02:20:26;1.55;;;1.00;;
5646;SDS011;2845;48.626;9.362;2023-07-02T02:23:02;1.80;;;0.80;;
5646;SDS011;2845;48.626;9.362;2023-07-02T02:25:36;2.17;;;1.02;;
5646;SDS011;2845;48.626;9.362;2023-07-02T02:28:10;1.77;;;0.80;;
5646;SDS011;2845;48.626;9.362;2023-07-02T02:30:44;1.30;;;0.82;;
5646;SDS011;2845;48.626;9.362;2023-07-02T02:33:20;2.08;;;0.93;;
5646;SDS011;2845;48.626;9.362;2023-07-02T02:35:55;2.45;;;1.10;;
5646;SDS011;2845;48.626;9.362;2023-07-02T02:38:30;2.00;;;0.93;;
5646;SDS011;2845;48.626;9.362;2023-07-02T02:41:06;1.92;;;0.90;;
5646;SDS011;2845;48.626;9.362;2023-07-02T02:43:41;1.90;;;1.02;;
5646;SDS011;2845;48.626;9.362;2023-07-02T02:46:19;2.83;;;1.27;;
5646;SDS011;2845;48.626;9.362;2023-07-02T02:48:54;1.83;;;0.77;;
5646;SDS011;2845;48.626;9.362;2023-07-02T02:51:28;2.20;;;1.00;;
5646;SDS011;2845;48.626;9.362;2023-07-02T02:54:03;1.92;;;0.93;;
5646;SDS011;2845;48.626;9.362;2023-07-02T02:56:37;1.63;;;0.80;;
5646;SDS011;2845;48.626;9.362;2023-07-02T02:59:12;2.08;;;1.08;;
5646;SDS011;2845;48.626;9.362;2023-07-02T03:01:46;1.52;;;0.90;;
5646;SDS011;2845;48.626;9.362;2023-07-02T03:04:20;1.77;;;0.93;;
5646;SDS011;2845;48.626;9.362;2023-07-02T03:06:56;1.98;;;0.98;;
5646;SDS011;2845;48.626;9.362;2023-07-02T03:09:32;2.03;;;1.05;;
5646;SDS011;2845;48.626;9.362;2023-07-02T03:12:06;3.80;;;1.08;;
5646;SDS011;2845;48.626;9.362;2023-07-02T03:14:41;1.85;;;0.90;;
5646;SDS011;2845;48.626;9.362;2023-07-02T03:17:15;2.53;;;1.00;;
5646;SDS011;2845;48.626;9.362;2023-07-02T03:19:49;2.28;;;1.30;;
5646;SDS011;2845;48.626;9.362;2023-07-02T03:22:23;1.95;;;0.93;;
5646;SDS011;2845;48.626;9.362;2023-07-02T03:24:59;1.50;;;0.90;;
5646;SDS011;2845;48.626;9.362;2023-07-02T03:27:34;1.98;;;1.15;;
5646;SDS011;2845;48.626;9.362;2023-07-02T03:30:08;2.22;;;1.30;;
5646;SDS011;2845;48.626;9.362;2023-07-02T03:32:43;2.38;;;1.10;;
5646;SDS011;2845;48.626;9.362;2023-07-02T03:35:17;2.63;;;1.08;;
5646;SDS011;2845;48.626;9.362;2023-07-02T03:37:51;3.10;;;1.05;;
5646;SDS011;2845;48.626;9.362;2023-07-02T03:40:26;3.80;;;1.00;;
5646;SDS011;2845;48.626;9.362;2023-07-02T03:43:01;3.13;;;1.20;;
5646;SDS011;2845;48.626;9.362;2023-07-02T03:45:35;3.42;;;1.13;;
5646;SDS011;2845;48.626;9.362;2023-07-02T03:48:09;3.30;;;1.40;;
5646;SDS011;2845;48.626;9.362;2023-07-02T03:50:43;2.45;;;1.08;;
5646;SDS011;2845;48.626;9.362;2023-07-02T03:53:18;2.15;;;1.20;;
5646;SDS011;2845;48.626;9.362;2023-07-02T03:55:53;2.65;;;0.95;;
5646;SDS011;2845;48.626;9.362;2023-07-02T03:58:27;2.80;;;1.23;;
5646;SDS011;2845;48.626;9.362;2023-07-02T04:01:01;5.75;;;1.05;;
5646;SDS011;2845;48.626;9.362;2023-07-02T04:03:35;2.60;;;1.15;;
5646;SDS011;2845;48.626;9.362;2023-07-02T04:06:10;2.42;;;1.30;;
5646;SDS011;2845;48.626;9.362;2023-07-02T04:08:44;2.30;;;1.33;;
5646;SDS011;2845;48.626;9.362;2023-07-02T04:11:20;2.03;;;1.02;;
5646;SDS011;2845;48.626;9.362;2023-07-02T04:13:54;2.55;;;1.20;;
5646;SDS011;2845;48.626;9.362;2023-07-02T04:16:28;2.30;;;1.10;;
5646;SDS011;2845;48.626;9.362;2023-07-02T04:19:03;2.15;;;1.20;;
5646;SDS011;2845;48.626;9.362;2023-07-02T04:21:37;2.33;;;0.95;;
5646;SDS011;2845;48.626;9.362;2023-07-02T04:24:11;1.48;;;0.90;;
5646;SDS011;2845;48.626;9.362;2023-07-02T04:26:47;1.48;;;0.90;;
5646;SDS011;2845;48.626;9.362;2023-07-02T04:29:41;3.13;;;0.85;;
5646;SDS011;2845;48.626;9.362;2023-07-02T04:32:15;2.60;;;1.05;;
5646;SDS011;2845;48.626;9.362;2023-07-02T04:34:49;1.70;;;1.10;;
5646;SDS011;2845;48.626;9.362;2023-07-02T04:37:23;3.05;;;1.20;;
5646;SDS011;2845;48.626;9.362;2023-07-02T04:39:58;4.35;;;0.90;;
5646;SDS011;2845;48.626;9.362;2023-07-02T04:42:33;2.60;;;1.02;;
5646;SDS011;2845;48.626;9.362;2023-07-02T04:45:10;1.73;;;0.93;;
5646;SDS011;2845;48.626;9.362;2023-07-02T04:47:48;2.63;;;1.38;;
5646;SDS011;2845;48.626;9.362;2023-07-02T04:50:22;2.42;;;1.30;;
5646;SDS011;2845;48.626;9.362;2023-07-02T04:52:57;2.33;;;1.00;;
5646;SDS011;2845;48.626;9.362;2023-07-02T04:55:31;3.42;;;1.10;;
5646;SDS011;2845;48.626;9.362;2023-07-02T04:58:06;3.92;;;1.27;;
5646;SDS011;2845;48.626;9.362;2023-07-02T05:00:41;2.08;;;1.13;;
5646;SDS011;2845;48.626;9.362;2023-07-02T05:03:15;1.25;;;0.80;;
5646;SDS011;2845;48.626;9.362;2023-07-02T05:05:49;3.35;;;1.52;;
5646;SDS011;2845;48.626;9.362;2023-07-02T05:08:24;2.83;;;1.13;;
5646;SDS011;2845;48.626;9.362;2023-07-02T05:10:58;3.78;;;1.13;;
5646;SDS011;2845;48.626;9.362;2023-07-02T05:13:33;2.88;;;1.23;;
5646;SDS011;2845;48.626;9.362;2023-07-02T05:16:07;4.28;;;1.25;;
5646;SDS011;2845;48.626;9.362;2023-07-02T05:18:43;1.65;;;1.02;;
5646;SDS011;2845;48.626;9.362;2023-07-02T05:21:17;2.33;;;1.00;;
5646;SDS011;2845;48.626;9.362;2023-07-02T05:23:52;3.20;;;1.08;;
5646;SDS011;2845;48.626;9.362;2023-07-02T05:26:26;2.83;;;1.00;;
5646;SDS011;2845;48.626;9.362;2023-07-02T05:29:01;1.95;;;0.90;;
5646;SDS011;2845;48.626;9.362;2023-07-02T05:31:37;2.35;;;1.30;;
5646;SDS011;2845;48.626;9.362;2023-07-02T05:34:11;1.55;;;0.85;;
5646;SDS011;2845;48.626;9.362;2023-07-02T05:36:46;2.92;;;1.27;;
5646;SDS011;2845;48.626;9.362;2023-07-02T05:39:20;2.33;;;1.13;;
5646;SDS011;2845;48.626;9.362;2023-07-02T05:41:55;1.77;;;0.88;;
5646;SDS011;2845;48.626;9.362;2023-07-02T05:44:31;1.50;;;0.70;;
5646;SDS011;2845;48.626;9.362;2023-07-02T05:47:05;1.77;;;0.85;;
5646;SDS011;2845;48.626;9.362;2023-07-02T05:49:40;2.25;;;0.98;;
5646;SDS011;2845;48.626;9.362;2023-07-02T05:52:15;2.70;;;0.90;;
5646;SDS011;2845;48.626;9.362;2023-07-02T05:54:49;3.17;;;0.95;;
5646;SDS011;2845;48.626;9.362;2023-07-02T05:57:23;2.05;;;1.00;;
5646;SDS011;2845;48.626;9.362;2023-07-02T05:59:58;1.38;;;0.77;;
5646;SDS011;2845;48.626;9.362;2023-07-02T06:02:33;2.13;;;0.70;;
5646;SDS011;2845;48.626;9.362;2023-07-02T06:05:08;1.70;;;0.77;;
5646;SDS011;2845;48.626;9.362;2023-07-02T06:07:42;2.72;;;1.20;;
5646;SDS011;2845;48.626;9.362;2023-07-02T06:10:16;3.42;;;1.30;;
5646;SDS011;2845;48.626;9.362;2023-07-02T06:12:51;2.92;;;1.20;;
5646;SDS011;2845;48.626;9.362;2023-07-02T06:15:26;2.85;;;1.25;;
5646;SDS011;2845;48.626;9.362;2023-07-02T06:18:01;2.67;;;1.70;;
5646;SDS011;2845;48.626;9.362;2023-07-02T06:20:35;3.13;;;1.02;;
5646;SDS011;2845;48.626;9.362;2023-07-02T06:23:09;2.17;;;0.88;;
5646;SDS011;2845;48.626;9.362;2023-07-02T06:25:44;2.13;;;1.10;;
5646;SDS011;2845;48.626;9.362;2023-07-02T06:28:18;2.58;;;1.20;;
5646;SDS011;2845;48.626;9.362;2023-07-02T06:30:53;2.95;;;1.20;;
5646;SDS011;2845;48.626;9.362;2023-07-02T06:33:28;3.78;;;1.30;;
5646;SDS011;2845;48.626;9.362;2023-07-02T06:36:02;2.80;;;1.60;;
5646;SDS011;2845;48.626;9.362;2023-07-02T06:38:36;3.33;;;1.30;;
5646;SDS011;2845;48.626;9.362;2023-07-02T06:41:10;4.13;;;1.60;;
5646;SDS011;2845;48.626;9.362;2023-07-02T06:43:45;4.60;;;1.50;;
5646;SDS011;2845;48.626;9.362;2023-07-02T06:46:20;3.25;;;1.50;;
5646;SDS011;2845;48.626;9.362;2023-07-02T06:48:54;4.43;;;1.80;;
5646;SDS011;2845;48.626;9.362;2023-07-02T06:51:29;3.88;;;1.98;;
5646;SDS011;2845;48.626;9.362;2023-07-02T06:54:03;5.35;;;2.00;;
5646;SDS011;2845;48.626;9.362;2023-07-02T06:56:38;4.97;;;1.85;;
5646;SDS011;2845;48.626;9.362;2023-07-02T06:59:17;3.85;;;2.08;;
5646;SDS011;2845;48.626;9.362;2023-07-02T07:01:54;4.95;;;2.20;;
5646;SDS011;2845;48.626;9.362;2023-07-02T07:04:29;7.43;;;2.20;;
5646;SDS011;2845;48.626;9.362;2023-07-02T07:07:03;5.65;;;2.38;;
5646;SDS011;2845;48.626;9.362;2023-07-02T07:09:38;5.80;;;2.10;;
5646;SDS011;2845;48.626;9.362;2023-07-02T07:12:12;7.20;;;2.53;;
5646;SDS011;2845;48.626;9.362;2023-07-02T07:14:46;7.22;;;2.75;;
5646;SDS011;2845;48.626;9.362;2023-07-02T07:17:22;5.75;;;1.98;;
5646;SDS011;2845;48.626;9.362;2023-07-02T07:19:57;7.28;;;2.53;;
5646;SDS011;2845;48.626;9.362;2023-07-02T07:22:31;5.25;;;2.28;;
5646;SDS011;2845;48.626;9.362;2023-07-02T07:25:08;4.63;;;2.03;;
5646;SDS011;2845;48.626;9.362;2023-07-02T07:27:43;6.10;;;2.45;;
5646;SDS011;2845;48.626;9.362;2023-07-02T07:30:17;6.10;;;2.03;;
5646;SDS011;2845;48.626;9.362;2023-07-02T07:32:56;6.22;;;2.40;;
5646;SDS011;2845;48.626;9.362;2023-07-02T07:35:31;4.80;;;2.10;;
5646;SDS011;2845;48.626;9.362;2023-07-02T07:38:06;6.55;;;2.65;;
5646;SDS011;2845;48.626;9.362;2023-07-02T07:40:40;5.88;;;2.08;;
5646;SDS011;2845;48.626;9.362;2023-07-02T07:43:14;4.80;;;1.98;;
5646;SDS011;2845;48.626;9.362;2023-07-02T07:45:49;4.85;;;2.28;;
5646;SDS011;2845;48.626;9.362;2023-07-02T07:48:24;5.45;;;2.28;;
5646;SDS011;2845;48.626;9.362;2023-07-02T07:50:59;6.35;;;2.42;;
5646;SDS011;2845;48.626;9.362;2023-07-02T07:53:37;5.20;;;2.17;;
5646;SDS011;2845;48.626;9.362;2023-07-02T07:56:12;4.90;;;2.10;;
5646;SDS011;2845;48.626;9.362;2023-07-02T07:58:46;6.38;;;2.60;;
5646;SDS011;2845;48.626;9.362;2023-07-02T08:01:21;6.93;;;2.60;;
5646;SDS011;2845;48.626;9.362;2023-07-02T08:03:56;9.90;;;3.03;;
5646;SDS011;2845;48.626;9.362;2023-07-02T08:06:31;5.47;;;2.70;;
5646;SDS011;2845;48.626;9.362;2023-07-02T08:09:05;5.90;;;2.88;;
5646;SDS011;2845;48.626;9.362;2023-07-02T08:11:40;7.53;;;2.80;;
5646;SDS011;2845;48.626;9.362;2023-07-02T08:14:16;9.40;;;4.22;;
5646;SDS011;2845;48.626;9.362;2023-07-02T08:16:51;6.88;;;3.25;;
5646;SDS011;2845;48.626;9.362;2023-07-02T08:19:27;8.73;;;3.83;;
5646;SDS011;2845;48.626;9.362;2023-07-02T08:22:02;8.23;;;3.38;;
5646;SDS011;2845;48.626;9.362;2023-07-02T08:24:36;8.38;;;3.95;;
5646;SDS011;2845;48.626;9.362;2023-07-02T08:27:24;8.60;;;4.07;;
5646;SDS011;2845;48.626;9.362;2023-07-02T08:29:58;9.27;;;4.10;;
5646;SDS011;2845;48.626;9.362;2023-07-02T08:32:33;9.32;;;4.13;;
5646;SDS011;2845;48.626;9.362;2023-07-02T08:35:09;8.35;;;3.90;;
5646;SDS011;2845;48.626;9.362;2023-07-02T08:37:44;14.48;;;4.20;;
5646;SDS011;2845;48.626;9.362;2023-07-02T08:40:18;8.27;;;4.25;;
5646;SDS011;2845;48.626;9.362;2023-07-02T08:42:53;10.63;;;4.45;;
5646;SDS011;2845;48.626;9.362;2023-07-02T08:45:27;11.20;;;5.43;;
5646;SDS011;2845;48.626;9.362;2023-07-02T08:48:02;10.43;;;4.93;;
5646;SDS011;2845;48.626;9.362;2023-07-02T08:50:38;11.65;;;5.10;;
5646;SDS011;2845;48.626;9.362;2023-07-02T08:53:12;11.25;;;4.53;;
5646;SDS011;2845;48.626;9.362;2023-07-02T08:55:46;13.73;;;5.03;;
5646;SDS011;2845;48.626;9.362;2023-07-02T08:58:22;14.70;;;4.85;;
5646;SDS011;2845;48.626;9.362;2023-07-02T09:01:09;11.05;;;5.03;;
5646;SDS011;2845;48.626;9.362;2023-07-02T09:03:45;8.50;;;4.70;;
5646;SDS011;2845;48.626;9.362;2023-07-02T09:06:21;9.25;;;4.35;;
5646;SDS011;2845;48.626;9.362;2023-07-02T09:09:03;11.15;;;4.80;;
5646;SDS011;2845;48.626;9.362;2023-07-02T09:11:46;10.50;;;4.63;;
5646;SDS011;2845;48.626;9.362;2023-07-02T09:14:25;10.98;;;4.68;;
5646;SDS011;2845;48.626;9.362;2023-07-02T09:17:02;9.55;;;4.57;;
5646;SDS011;2845;48.626;9.362;2023-07-02T09:19:50;10.85;;;4.90;;
5646;SDS011;2845;48.626;9.362;2023-07-02T09:22:26;10.15;;;5.00;;
5646;SDS011;2845;48.626;9.362;2023-07-02T09:25:01;12.48;;;5.40;;
5646;SDS011;2845;48.626;9.362;2023-07-02T09:27:36;9.32;;;4.70;;
5646;SDS011;2845;48.626;9.362;2023-07-02T09:30:14;9.95;;;5.10;;
5646;SDS011;2845;48.626;9.362;2023-07-02T09:32:49;11.80;;;4.88;;
5646;SDS011;2845;48.626;9.362;2023-07-02T09:35:23;9.10;;;4.65;;
5646;SDS011;2845;48.626;9.362;2023-07-02T09:37:59;12.02;;;5.25;;
5646;SDS011;2845;48.626;9.362;2023-07-02T09:40:33;9.32;;;4.40;;
5646;SDS011;2845;48.626;9.362;2023-07-02T09:43:08;9.68;;;4.43;;
5646;SDS011;2845;48.626;9.362;2023-07-02T09:45:43;9.73;;;4.60;;
5646;SDS011;2845;48.626;9.362;2023-07-02T09:48:19;11.05;;;4.50;;
5646;SDS011;2845;48.626;9.362;2023-07-02T09:50:58;10.13;;;4.70;;
5646;SDS011;2845;48.626;9.362;2023-07-02T09:53:34;12.93;;;5.30;;
5646;SDS011;2845;48.626;9.362;2023-07-02T09:56:08;9.27;;;4.68;;
5646;SDS011;2845;48.626;9.362;2023-07-02T09:58:44;10.75;;;4.78;;
5646;SDS011;2845;48.626;9.362;2023-07-02T10:01:19;10.80;;;5.53;;
5646;SDS011;2845;48.626;9.362;2023-07-02T10:03:53;11.60;;;6.15;;
5646;SDS011;2845;48.626;9.362;2023-07-02T10:06:28;17.02;;;6.35;;
5646;SDS011;2845;48.626;9.362;2023-07-02T10:09:03;15.85;;;6.90;;
5646;SDS011;2845;48.626;9.362;2023-07-02T10:11:38;13.30;;;6.22;;
5646;SDS011;2845;48.626;9.362;2023-07-02T10:14:12;13.30;;;6.60;;
5646;SDS011;2845;48.626;9.362;2023-07-02T10:16:50;14.85;;;6.97;;
5646;SDS011;2845;48.626;9.362;2023-07-02T10:19:25;13.90;;;6.75;;
5646;SDS011;2845;48.626;9.362;2023-07-02T10:22:00;14.82;;;6.60;;
5646;SDS011;2845;48.626;9.362;2023-07-02T10:24:37;12.48;;;7.00;;
5646;SDS011;2845;48.626;9.362;2023-07-02T10:27:11;12.45;;;6.13;;
5646;SDS011;2845;48.626;9.362;2023-07-02T10:29:49;12.20;;;5.93;;
5646;SDS011;2845;48.626;9.362;2023-07-02T10:32:27;13.90;;;7.15;;
5646;SDS011;2845;48.626;9.362;2023-07-02T10:35:02;14.45;;;7.20;;
5646;SDS011;2845;48.626;9.362;2023-07-02T10:37:46;13.73;;;6.32;;
5646;SDS011;2845;48.626;9.362;2023-07-02T10:40:22;12.95;;;6.50;;
5646;SDS011;2845;48.626;9.362;2023-07-02T10:42:56;15.73;;;6.95;;
5646;SDS011;2845;48.626;9.362;2023-07-02T10:45:31;11.65;;;6.20;;
5646;SDS011;2845;48.626;9.362;2023-07-02T10:48:09;13.52;;;6.63;;
5646;SDS011;2845;48.626;9.362;2023-07-02T10:50:43;13.45;;;6.05;;
5646;SDS011;2845;48.626;9.362;2023-07-02T10:53:19;14.10;;;7.07;;
5646;SDS011;2845;48.626;9.362;2023-07-02T10:55:56;14.20;;;6.07;;
5646;SDS011;2845;48.626;9.362;2023-07-02T10:58:41;13.90;;;6.40;;
5646;SDS011;2845;48.626;9.362;2023-07-02T11:01:21;14.05;;;7.32;;
5646;SDS011;2845;48.626;9.362;2023-07-02T11:03:57;12.02;;;6.20;;
5646;SDS011;2845;48.626;9.362;2023-07-02T11:06:33;13.90;;;6.63;;
5646;SDS011;2845;48.626;9.362;2023-07-02T11:09:15;13.57;;;6.95;;
5646;SDS011;2845;48.626;9.362;2023-07-02T11:11:52;12.75;;;6.80;;
5646;SDS011;2845;48.626;9.362;2023-07-02T11:14:29;14.17;;;6.77;;
5646;SDS011;2845;48.626;9.362;2023-07-02T11:17:05;13.05;;;6.47;;
5646;SDS011;2845;48.626;9.362;2023-07-02T11:19:40;11.63;;;6.68;;
5646;SDS011;2845;48.626;9.362;2023-07-02T11:22:14;12.15;;;6.38;;
5646;SDS011;2845;48.626;9.362;2023-07-02T11:24:49;13.00;;;6.45;;
5646;SDS011;2845;48.626;9.362;2023-07-02T11:27:24;14.32;;;7.07;;
5646;SDS011;2845;48.626;9.362;2023-07-02T11:30:00;11.52;;;5.82;;
5646;SDS011;2845;48.626;9.362;2023-07-02T11:32:46;12.43;;;6.32;;
5646;SDS011;2845;48.626;9.362;2023-07-02T11:35:22;13.68;;;6.90;;
5646;SDS011;2845;48.626;9.362;2023-07-02T11:38:08;14.98;;;6.35;;
5646;SDS011;2845;48.626;9.362;2023-07-02T11:40:42;15.95;;;6.93;;
5646;SDS011;2845;48.626;9.362;2023-07-02T11:43:20;14.93;;;7.63;;
5646;SDS011;2845;48.626;9.362;2023-07-02T11:45:54;13.10;;;6.45;;
5646;SDS011;2845;48.626;9.362;2023-07-02T11:48:29;12.68;;;6.57;;
5646;SDS011;2845;48.626;9.362;2023-07-02T11:51:03;12.95;;;6.57;;
5646;SDS011;2845;48.626;9.362;2023-07-02T11:53:38;13.88;;;6.90;;
5646;SDS011;2845;48.626;9.362;2023-07-02T11:56:13;14.10;;;6.38;;
5646;SDS011;2845;48.626;9.362;2023-07-02T11:58:48;14.70;;;7.10;;
5646;SDS011;2845;48.626;9.362;2023-07-02T12:01:22;14.50;;;6.75;;
5646;SDS011;2845;48.626;9.362;2023-07-02T12:03:57;12.20;;;6.22;;
5646;SDS011;2845;48.626;9.362;2023-07-02T12:06:31;13.20;;;6.18;;
5646;SDS011;2845;48.626;9.362;2023-07-02T12:09:05;13.90;;;6.72;;
5646;SDS011;2845;48.626;9.362;2023-07-02T12:11:40;15.50;;;7.25;;
5646;SDS011;2845;48.626;9.362;2023-07-02T12:14:15;13.40;;;6.88;;
5646;SDS011;2845;48.626;9.362;2023-07-02T12:16:49;15.63;;;6.82;;
5646;SDS011;2845;48.626;9.362;2023-07-02T12:19:25;14.13;;;6.13;;
5646;SDS011;2845;48.626;9.362;2023-07-02T12:21:59;12.77;;;6.03;;
5646;SDS011;2845;48.626;9.362;2023-07-02T12:24:35;12.77;;;6.35;;
5646;SDS011;2845;48.626;9.362;2023-07-02T12:27:09;11.80;;;5.82;;
5646;SDS011;2845;48.626;9.362;2023-07-02T12:29:45;12.68;;;6.10;;
5646;SDS011;2845;48.626;9.362;2023-07-02T12:32:21;10.63;;;5.80;;
5646;SDS011;2845;48.626;9.362;2023-07-02T12:34:55;10.82;;;5.68;;
5646;SDS011;2845;48.626;9.362;2023-07-02T12:37:31;13.52;;;6.50;;
5646;SDS011;2845;48.626;9.362;2023-07-02T12:40:07;15.13;;;6.63;;
5646;SDS011;2845;48.626;9.362;2023-07-02T12:42:43;12.23;;;6.30;;
5646;SDS011;2845;48.626;9.362;2023-07-02T12:45:20;11.77;;;5.55;;
5646;SDS011;2845;48.626;9.362;2023-07-02T12:47:54;10.93;;;5.57;;
5646;SDS011;2845;48.626;9.362;2023-07-02T12:50:29;14.93;;;5.28;;
5646;SDS011;2845;48.626;9.362;2023-07-02T12:53:03;10.48;;;5.28;;
5646;SDS011;2845;48.626;9.362;2023-07-02T12:55:38;11.65;;;5.88;;
5646;SDS011;2845;48.626;9.362;2023-07-02T12:58:12;10.40;;;5.70;;
5646;SDS011;2845;48.626;9.362;2023-07-02T13:00:48;11.95;;;6.55;;
5646;SDS011;2845;48.626;9.362;2023-07-02T13:03:23;11.82;;;6.30;;
5646;SDS011;2845;48.626;9.362;2023-07-02T13:05:58;12.18;;;5.85;;
5646;SDS011;2845;48.626;9.362;2023-07-02T13:08:32;15.80;;;6.30;;
5646;SDS011;2845;48.626;9.362;2023-07-02T13:11:07;12.55;;;5.90;;
5646;SDS011;2845;48.626;9.362;2023-07-02T13:13:42;13.13;;;5.55;;
5646;SDS011;2845;48.626;9.362;2023-07-02T13:16:21;11.07;;;5.95;;
5646;SDS011;2845;48.626;9.362;2023-07-02T13:18:57;12.60;;;6.53;;
5646;SDS011;2845;48.626;9.362;2023-07-02T13:21:34;12.70;;;6.00;;
5646;SDS011;2845;48.626;9.362;2023-07-02T13:24:08;10.70;;;5.75;;
5646;SDS011;2845;48.626;9.362;2023-07-02T13:26:43;14.68;;;6.22;;
5646;SDS011;2845;48.626;9.362;2023-07-02T13:29:17;12.55;;;6.03;;
5646;SDS011;2845;48.626;9.362;2023-07-02T13:31:53;13.15;;;6.10;;
5646;SDS011;2845;48.626;9.362;2023-07-02T13:34:28;10.15;;;5.85;;
5646;SDS011;2845;48.626;9.362;2023-07-02T13:37:02;11.10;;;5.38;;
5646;SDS011;2845;48.626;9.362;2023-07-02T13:39:37;9.52;;;5.70;;
5646;SDS011;2845;48.626;9.362;2023-07-02T13:42:12;12.98;;;6.20;;
5646;SDS011;2845;48.626;9.362;2023-07-02T13:44:46;11.48;;;6.07;;
5646;SDS011;2845;48.626;9.362;2023-07-02T13:47:22;14.25;;;6.70;;
5646;SDS011;2845;48.626;9.362;2023-07-02T13:49:56;11.98;;;6.50;;
5646;SDS011;2845;48.626;9.362;2023-07-02T13:52:31;11.57;;;5.85;;
5646;SDS011;2845;48.626;9.362;2023-07-02T13:55:08;11.45;;;6.80;;
5646;SDS011;2845;48.626;9.362;2023-07-02T13:57:43;14.38;;;6.05;;
5646;SDS011;2845;48.626;9.362;2023-07-02T14:00:19;12.73;;;6.30;;
5646;SDS011;2845;48.626;9.362;2023-07-02T14:02:53;14.35;;;7.53;;
5646;SDS011;2845;48.626;9.362;2023-07-02T14:05:28;15.13;;;7.18;;
5646;SDS011;2845;48.626;9.362;2023-07-02T14:08:03;13.15;;;6.72;;
5646;SDS011;2845;48.626;9.362;2023-07-02T14:10:38;12.40;;;6.70;;
5646;SDS011;2845;48.626;9.362;2023-07-02T14:13:22;9.05;;;5.53;;
5646;SDS011;2845;48.626;9.362;2023-07-02T14:16:00;13.30;;;6.53;;
5646;SDS011;2845;48.626;9.362;2023-07-02T14:18:38;11.10;;;6.45;;
5646;SDS011;2845;48.626;9.362;2023-07-02T14:21:12;12.30;;;6.47;;
5646;SDS011;2845;48.626;9.362;2023-07-02T14:23:46;11.82;;;6.57;;
5646;SDS011;2845;48.626;9.362;2023-07-02T14:26:24;12.15;;;6.43;;
5646;SDS011;2845;48.626;9.362;2023-07-02T14:28:59;13.18;;;6.30;;
5646;SDS011;2845;48.626;9.362;2023-07-02T14:31:37;11.98;;;6.47;;
5646;SDS011;2845;48.626;9.362;2023-07-02T14:34:13;13.13;;;7.43;;
5646;SDS011;2845;48.626;9.362;2023-07-02T14:36:48;12.80;;;6.75;;
5646;SDS011;2845;48.626;9.362;2023-07-02T14:39:24;16.02;;;7.75;;
5646;SDS011;2845;48.626;9.362;2023-07-02T14:41:59;14.13;;;7.82;;
5646;SDS011;2845;48.626;9.362;2023-07-02T14:44:34;13.68;;;6.97;;
5646;SDS011;2845;48.626;9.362;2023-07-02T14:47:10;15.32;;;7.43;;
5646;SDS011;2845;48.626;9.362;2023-07-02T14:49:44;13.73;;;6.88;;
5646;SDS011;2845;48.626;9.362;2023-07-02T14:52:19;13.85;;;7.68;;
5646;SDS011;2845;48.626;9.362;2023-07-02T14:54:53;14.50;;;7.03;;
5646;SDS011;2845;48.626;9.362;2023-07-02T14:57:28;11.57;;;6.78;;
5646;SDS011;2845;48.626;9.362;2023-07-02T15:00:04;13.52;;;6.85;;
5646;SDS011;2845;48.626;9.362;2023-07-02T15:02:42;13.82;;;7.53;;
5646;SDS011;2845;48.626;9.362;2023-07-02T15:05:18;15.15;;;7.55;;
5646;SDS011;2845;48.626;9.362;2023-07-02T15:07:53;13.25;;;7.65;;
5646;SDS011;2845;48.626;9.362;2023-07-02T15:10:28;14.23;;;7.28;;
5646;SDS011;2845;48.626;9.362;2023-07-02T15:20:18;15.07;;;7.32;;
5646;SDS011;2845;48.626;9.362;2023-07-02T15:22:53;12.77;;;7.22;;
5646;SDS011;2845;48.626;9.362;2023-07-02T15:25:27;12.57;;;6.68;;
5646;SDS011;2845;48.626;9.362;2023-07-02T15:28:03;12.07;;;6.60;;
5646;SDS011;2845;48.626;9.362;2023-07-02T15:30:38;16.52;;;7.90;;
5646;SDS011;2845;48.626;9.362;2023-07-02T15:33:14;14.32;;;7.45;;
5646;SDS011;2845;48.626;9.362;2023-07-02T15:35:51;11.20;;;6.65;;
5646;SDS011;2845;48.626;9.362;2023-07-02T15:38:26;11.45;;;6.75;;
5646;SDS011;2845;48.626;9.362;2023-07-02T15:41:07;16.13;;;7.63;;
5646;SDS011;2845;48.626;9.362;2023-07-02T15:43:45;12.90;;;6.93;;
5646;SDS011;2845;48.626;9.362;2023-07-02T15:46:21;14.38;;;7.78;;
5646;SDS011;2845;48.626;9.362;2023-07-02T15:48:57;12.63;;;6.90;;
5646;SDS011;2845;48.626;9.362;2023-07-02T15:51:35;12.60;;;6.72;;
5646;SDS011;2845;48.626;9.362;2023-07-02T15:54:12;16.80;;;7.82;;
5646;SDS011;2845;48.626;9.362;2023-07-02T15:56:47;14.00;;;7.75;;
5646;SDS011;2845;48.626;9.362;2023-07-02T15:59:22;11.13;;;6.60;;
5646;SDS011;2845;48.626;9.362;2023-07-02T16:01:57;12.57;;;6.78;;
5646;SDS011;2845;48.626;9.362;2023-07-02T16:04:35;10.75;;;6.03;;
5646;SDS011;2845;48.626;9.362;2023-07-02T16:07:13;12.32;;;6.40;;